Time;durP1;ratioP1;P1;durP2;ratioP2;P2;SDS_P1;SDS_P2;PMS_P1;PMS_P2;Temp;Humidity;BMP_temperature;BMP_pressure;BME280_temperature;BME280_humidity;BME280_pressure;Samples;Min_cycle;Max_cycle;Signal;HPM_P1;HPM_P2
2023/11/16 00:01:20;;;;;;;5.10;2.38;;;;;;;7.02;100.00;100753.63;4740664;30;20207;-69
2023/11/16 00:03:55;;;;;;;2.65;1.90;;;;;;;7.26;100.00;100753.38;4754420;30;20232;-67
2023/11/16 00:06:29;;;;;;;3.78;2.08;;;;;;;7.23;100.00;100759.16;4740366;30;20220;-69
2023/11/16 00:09:01;;;;;;;2.85;2.25;;;;;;;7.37;100.00;100763.72;4741081;30;20203;-69
2023/11/16 00:11:35;;;;;;;1.92;1.40;;;;;;;7.31;100.00;100750.16;4740400;30;20271;-67
2023/11/16 00:14:09;;;;;;;5.30;3.20;;;;;;;7.35;100.00;100755.00;4753934;30;20266;-67
2023/11/16 00:16:44;;;;;;;2.60;2.40;;;;;;;7.53;100.00;100753.78;4736896;30;20213;-67
2023/11/16 00:19:18;;;;;;;5.70;2.75;;;;;;;7.59;100.00;100753.06;4754087;30;20613;-67
2023/11/16 00:21:55;;;;;;;6.03;2.65;;;;;;;7.63;100.00;100743.56;4739763;30;20227;-67
2023/11/16 00:24:30;;;;;;;4.30;2.15;;;;;;;7.70;100.00;100747.16;4739930;30;20703;-67
2023/11/16 00:27:03;;;;;;;4.15;2.45;;;;;;;7.66;100.00;100744.03;4738644;30;20585;-65
2023/11/16 00:29:38;;;;;;;4.63;2.72;;;;;;;7.65;100.00;100738.84;4742939;30;20210;-69
2023/11/16 00:32:13;;;;;;;4.00;2.40;;;;;;;7.54;100.00;100742.00;4740151;30;20623;-68
2023/11/16 00:34:46;;;;;;;3.17;2.47;;;;;;;7.72;100.00;100734.38;4744603;30;20710;-67
2023/11/16 00:37:21;;;;;;;4.20;2.35;;;;;;;7.60;100.00;100739.38;4743538;30;20218;-68
2023/11/16 00:39:57;;;;;;;3.97;1.70;;;;;;;7.70;100.00;100731.00;4757916;30;20208;-69
2023/11/16 00:42:30;;;;;;;2.53;1.52;;;;;;;7.71;100.00;100727.31;4745338;30;20550;-69
2023/11/16 00:45:06;;;;;;;2.92;1.70;;;;;;;7.61;100.00;100722.22;4755688;30;20220;-68
2023/11/16 00:47:41;;;;;;;3.35;2.13;;;;;;;7.65;100.00;100722.69;4739577;30;20215;-69
2023/11/16 00:50:13;;;;;;;3.55;1.95;;;;;;;7.65;100.00;100723.50;4754221;30;20273;-69
2023/11/16 00:52:47;;;;;;;3.80;2.33;;;;;;;7.62;100.00;100725.75;4754253;30;20215;-68
2023/11/16 00:55:21;;;;;;;4.18;1.73;;;;;;;7.71;100.00;100722.75;4755327;30;20250;-69
2023/11/16 00:57:57;;;;;;;5.78;3.00;;;;;;;7.77;100.00;100726.56;4743810;30;20204;-70
2023/11/16 01:00:31;;;;;;;3.83;2.38;;;;;;;7.84;100.00;100716.72;4737905;30;20564;-70
2023/11/16 01:03:06;;;;;;;3.75;2.00;;;;;;;7.96;100.00;100717.03;4739120;30;20695;-68
2023/11/16 01:05:39;;;;;;;2.80;1.83;;;;;;;7.94;100.00;100721.81;4752760;30;20700;-68
2023/11/16 01:08:21;;;;;;;5.40;1.73;;;;;;;8.07;100.00;100717.41;4753487;30;20223;-70
2023/11/16 01:10:54;;;;;;;2.83;1.65;;;;;;;8.14;100.00;100718.28;4753647;30;20215;-67
2023/11/16 01:13:28;;;;;;;3.05;2.17;;;;;;;8.06;100.00;100713.03;4748138;30;20782;-67
2023/11/16 01:16:03;;;;;;;3.55;1.45;;;;;;;7.98;100.00;100715.00;4749993;30;20235;-67
2023/11/16 01:18:50;;;;;;;3.40;1.70;;;;;;;8.10;100.00;100721.56;4750345;30;20212;-67
2023/11/16 01:21:37;;;;;;;1.73;1.55;;;;;;;8.10;100.00;100711.63;4749648;30;20212;-66
2023/11/16 01:24:14;;;;;;;2.10;1.90;;;;;;;7.98;100.00;100713.16;4736192;30;20811;-66
2023/11/16 01:26:46;;;;;;;2.53;1.35;;;;;;;7.86;100.00;100712.78;4749271;30;20232;-68
2023/11/16 01:29:22;;;;;;;5.80;1.60;;;;;;;7.90;100.00;100710.53;4748904;30;20210;-68
2023/11/16 01:31:59;;;;;;;6.65;2.75;;;;;;;8.03;100.00;100709.88;4749209;30;20581;-69
2023/11/16 01:34:32;;;;;;;2.40;2.13;;;;;;;7.93;100.00;100709.34;4748982;30;20239;-68
2023/11/16 01:37:09;;;;;;;9.60;2.83;;;;;;;7.99;100.00;100714.78;4734784;30;20278;-67
2023/11/16 01:39:44;;;;;;;1.88;1.08;;;;;;;7.98;100.00;100707.75;4746161;30;20212;-65
2023/11/16 01:42:19;;;;;;;2.65;1.27;;;;;;;7.91;100.00;100712.22;4734732;30;20295;-67
2023/11/16 01:44:56;;;;;;;2.17;1.63;;;;;;;8.12;100.00;100709.56;4748375;30;20661;-66
2023/11/16 01:47:29;;;;;;;2.28;1.52;;;;;;;8.10;100.00;100705.38;4733000;30;20622;-66
2023/11/16 01:50:03;;;;;;;2.17;1.50;;;;;;;8.05;100.00;100705.13;4735667;30;20287;-68
2023/11/16 01:52:38;;;;;;;3.08;1.85;;;;;;;8.06;100.00;100698.72;4732909;30;20208;-67
2023/11/16 01:55:14;;;;;;;3.75;2.10;;;;;;;7.94;100.00;100697.56;4748430;30;20223;-67
2023/11/16 01:57:48;;;;;;;1.10;0.85;;;;;;;8.03;100.00;100694.56;4735572;30;20192;-65
2023/11/16 02:00:27;;;;;;;4.70;2.15;;;;;;;7.96;100.00;100699.03;4736267;30;20282;-70
2023/11/16 02:03:10;;;;;;;2.15;1.45;;;;;;;7.96;100.00;100693.63;4732720;30;20200;-67
2023/11/16 02:05:43;;;;;;;2.28;1.38;;;;;;;7.96;100.00;100699.03;4734325;30;20707;-66
2023/11/16 02:08:19;;;;;;;7.65;2.33;;;;;;;7.87;100.00;100689.38;4735399;30;20676;-68
2023/11/16 02:10:54;;;;;;;4.82;1.08;;;;;;;7.83;100.00;100688.09;4748488;30;20285;-68
2023/11/16 02:13:28;;;;;;;2.25;1.73;;;;;;;7.70;100.00;100680.69;4734126;30;20232;-67
2023/11/16 02:16:01;;;;;;;1.25;0.90;;;;;;;7.79;100.00;100681.44;4747889;30;20204;-67
2023/11/16 02:18:35;;;;;;;2.70;2.13;;;;;;;7.80;100.00;100680.38;4732674;30;20212;-67
2023/11/16 02:21:12;;;;;;;2.80;2.60;;;;;;;7.72;100.00;100680.50;4747387;30;20712;-68
2023/11/16 02:23:49;;;;;;;2.55;1.13;;;;;;;7.75;100.00;100678.25;4733188;30;20228;-68
2023/11/16 02:26:23;;;;;;;2.47;1.40;;;;;;;7.81;100.00;100673.97;4731139;30;20332;-68
2023/11/16 02:28:57;;;;;;;3.35;2.15;;;;;;;7.78;100.00;100669.81;4733414;30;20204;-65
2023/11/16 02:31:32;;;;;;;1.80;1.30;;;;;;;7.94;100.00;100668.72;4734246;30;20231;-69
2023/11/16 02:34:10;;;;;;;2.63;1.48;;;;;;;7.99;100.00;100678.97;4748203;30;20230;-67
2023/11/16 02:36:47;;;;;;;2.08;1.85;;;;;;;7.98;100.00;100678.13;4733861;30;20204;-66
2023/11/16 02:39:21;;;;;;;2.35;1.10;;;;;;;8.09;100.00;100666.81;4735293;30;20200;-67
2023/11/16 02:41:59;;;;;;;1.75;1.60;;;;;;;8.01;100.00;100674.19;4749594;30;20619;-68
2023/11/16 02:44:34;;;;;;;2.45;1.02;;;;;;;7.94;100.00;100674.09;4733447;30;20235;-69
2023/11/16 02:47:12;;;;;;;1.75;1.35;;;;;;;7.90;100.00;100678.22;4748070;30;20775;-67
2023/11/16 02:49:47;;;;;;;1.95;1.27;;;;;;;7.97;100.00;100662.97;4748099;30;20298;-67
2023/11/16 02:52:23;;;;;;;1.65;1.33;;;;;;;7.99;100.00;100663.59;4733547;30;20298;-67
2023/11/16 02:55:08;;;;;;;1.90;1.80;;;;;;;7.82;100.00;100654.94;4730570;30;20588;-66
2023/11/16 02:57:42;;;;;;;2.35;1.80;;;;;;;7.89;100.00;100665.75;4733300;30;20706;-68
2023/11/16 03:00:44;;;;;;;2.25;1.40;;;;;;;7.91;100.00;100652.94;4739131;30;20621;-66
2023/11/16 03:03:19;;;;;;;2.95;1.30;;;;;;;7.91;100.00;100663.72;4731311;30;20238;-68
2023/11/16 03:05:50;;;;;;;2.53;1.67;;;;;;;8.02;100.00;100647.06;4750461;30;20254;-66
2023/11/16 03:08:26;;;;;;;2.55;1.67;;;;;;;8.01;100.00;100658.03;4748574;30;20592;-67
2023/11/16 03:11:05;;;;;;;1.83;1.63;;;;;;;7.94;100.00;100649.06;4734300;30;20208;-67
2023/11/16 03:13:38;;;;;;;3.53;1.73;;;;;;;7.94;100.00;100646.38;4746127;30;20238;-68
2023/11/16 03:16:12;;;;;;;1.77;1.58;;;;;;;7.86;100.00;100650.81;4733887;30;20287;-69
2023/11/16 03:18:48;;;;;;;2.60;1.38;;;;;;;7.97;100.00;100645.97;4733143;30;20205;-68
2023/11/16 03:21:22;;;;;;;2.13;1.45;;;;;;;8.05;100.00;100649.38;4731428;30;20213;-67
2023/11/16 03:23:58;;;;;;;2.20;1.55;;;;;;;8.12;100.00;100650.28;4746924;30;20224;-68
2023/11/16 03:26:33;;;;;;;3.03;1.42;;;;;;;8.05;100.00;100646.66;4732323;30;20777;-67
2023/11/16 03:29:07;;;;;;;5.68;1.23;;;;;;;7.97;100.00;100641.41;4747132;30;20195;-67
2023/11/16 03:31:41;;;;;;;3.42;2.55;;;;;;;7.87;100.00;100646.28;4747466;30;20214;-68
2023/11/16 03:34:16;;;;;;;3.33;1.20;;;;;;;7.81;100.00;100638.94;4744979;30;20224;-68
2023/11/16 03:36:50;;;;;;;4.40;1.70;;;;;;;7.88;100.00;100636.34;4747369;30;20199;-67
2023/11/16 03:39:25;;;;;;;3.28;1.35;;;;;;;7.76;100.00;100633.28;4733986;30;20208;-67
2023/11/16 03:42:00;;;;;;;5.03;1.40;;;;;;;7.78;100.00;100631.25;4733791;30;20198;-67
2023/11/16 03:44:33;;;;;;;1.77;1.13;;;;;;;7.81;100.00;100636.25;4743340;30;20606;-66
2023/11/16 03:47:06;;;;;;;1.77;1.42;;;;;;;7.80;100.00;100639.97;4732395;30;20305;-66
2023/11/16 03:49:41;;;;;;;3.05;1.30;;;;;;;7.86;100.00;100631.13;4743767;30;20208;-69
2023/11/16 03:52:14;;;;;;;2.08;1.00;;;;;;;7.78;100.00;100631.25;4732363;30;20670;-65
2023/11/16 03:54:50;;;;;;;2.25;1.38;;;;;;;7.76;100.00;100630.59;4733334;30;20230;-66
2023/11/16 03:57:26;;;;;;;2.25;1.38;;;;;;;7.75;100.00;100631.63;4747314;30;20196;-66
2023/11/16 04:00:13;;;;;;;1.85;1.25;;;;;;;7.85;100.00;100632.16;4740946;30;20607;-63
2023/11/16 04:02:46;;;;;;;2.58;1.75;;;;;;;7.89;100.00;100632.63;4741074;30;20237;-65
2023/11/16 04:05:21;;;;;;;1.40;1.15;;;;;;;7.76;100.00;100627.91;4747120;30;20238;-67
2023/11/16 04:07:54;;;;;;;1.92;1.50;;;;;;;7.83;100.00;100626.13;4729919;30;20235;-66
2023/11/16 04:10:26;;;;;;;3.47;1.15;;;;;;;7.88;100.00;100621.00;4728740;30;20200;-68
2023/11/16 04:13:03;;;;;;;2.28;1.40;;;;;;;7.87;100.00;100613.94;4747339;30;20212;-67
2023/11/16 04:15:35;;;;;;;4.07;1.42;;;;;;;7.93;100.00;100607.81;4745146;30;20688;-68
2023/11/16 04:18:08;;;;;;;3.45;1.40;;;;;;;8.04;100.00;100604.56;4746483;30;20609;-68
2023/11/16 04:20:41;;;;;;;3.05;1.60;;;;;;;7.96;100.00;100607.41;4743432;30;20196;-68
2023/11/16 04:23:14;;;;;;;3.47;1.10;;;;;;;8.00;100.00;100611.38;4746739;30;20224;-68
2023/11/16 04:25:48;;;;;;;1.70;1.05;;;;;;;7.96;100.00;100607.41;4729513;30;20211;-67
2023/11/16 04:28:23;;;;;;;1.88;1.77;;;;;;;7.99;100.00;100612.41;4732860;30;20715;-66
2023/11/16 04:30:55;;;;;;;2.67;1.20;;;;;;;7.84;100.00;100611.66;4731846;30;20214;-67
2023/11/16 04:33:29;;;;;;;2.40;1.25;;;;;;;7.86;100.00;100601.50;4735739;30;20232;-66
2023/11/16 04:36:01;;;;;;;3.60;1.25;;;;;;;8.06;100.00;100597.16;4736555;30;20219;-66
2023/11/16 04:38:34;;;;;;;2.95;2.70;;;;;;;7.94;100.00;100598.66;4736037;30;20231;-68
2023/11/16 04:41:10;;;;;;;4.07;1.90;;;;;;;7.89;100.00;100594.91;4736804;30;20243;-66
2023/11/16 04:43:45;;;;;;;2.53;1.00;;;;;;;7.77;100.00;100599.97;4747590;30;20346;-67
2023/11/16 04:46:19;;;;;;;2.63;1.40;;;;;;;7.74;100.00;100590.41;4751161;30;20304;-68
2023/11/16 04:48:51;;;;;;;1.85;1.13;;;;;;;7.70;100.00;100585.56;4739432;30;20216;-68
2023/11/16 04:51:25;;;;;;;2.50;1.83;;;;;;;7.64;100.00;100587.19;4757659;30;20208;-67
2023/11/16 04:53:59;;;;;;;1.33;0.85;;;;;;;7.45;100.00;100582.41;4743247;30;20254;-66
2023/11/16 04:56:31;;;;;;;2.85;1.38;;;;;;;7.31;100.00;100576.03;4751641;30;20213;-67
2023/11/16 04:59:06;;;;;;;2.25;1.10;;;;;;;7.32;100.00;100577.69;4752392;30;20219;-68
2023/11/16 05:01:38;;;;;;;2.65;1.38;;;;;;;7.35;100.00;100580.03;4741454;30;20203;-69
2023/11/16 05:04:12;;;;;;;2.85;1.48;;;;;;;7.32;100.00;100569.63;4758070;30;20227;-67
2023/11/16 05:06:45;;;;;;;5.47;1.33;;;;;;;7.41;100.00;100576.56;4757237;30;20215;-67
2023/11/16 05:09:18;;;;;;;4.53;1.33;;;;;;;7.70;100.00;100574.78;4740743;30;20203;-67
2023/11/16 05:11:53;;;;;;;1.65;1.55;;;;;;;7.68;100.00;100577.69;4747634;30;20201;-67
2023/11/16 05:14:28;;;;;;;6.55;1.60;;;;;;;7.83;100.00;100573.09;4756827;30;20231;-68
2023/11/16 05:17:00;;;;;;;2.85;1.30;;;;;;;7.77;100.00;100565.78;4756286;30;20204;-67
2023/11/16 05:19:33;;;;;;;5.35;1.85;;;;;;;7.73;100.00;100564.50;4736747;30;20205;-67
2023/11/16 05:22:13;;;;;;;1.83;0.95;;;;;;;7.73;100.00;100558.28;4734958;30;20590;-67
2023/11/16 05:24:45;;;;;;;2.13;1.80;;;;;;;7.74;100.00;100559.94;4734199;30;20233;-68
2023/11/16 05:27:22;;;;;;;1.80;1.40;;;;;;;7.74;100.00;100558.09;4736273;30;20290;-67
2023/11/16 05:30:02;;;;;;;1.40;1.17;;;;;;;7.61;100.00;100559.78;4737093;30;20234;-69
2023/11/16 05:32:34;;;;;;;1.55;1.23;;;;;;;7.67;100.00;100550.94;4740832;30;20656;-68
2023/11/16 05:35:08;;;;;;;2.30;1.30;;;;;;;7.72;100.00;100561.97;4747212;30;20227;-66
2023/11/16 05:37:42;;;;;;;10.00;2.75;;;;;;;7.66;100.00;100552.81;4753677;30;20208;-67
2023/11/16 05:40:17;;;;;;;4.85;1.63;;;;;;;7.62;100.00;100551.53;4767154;30;20206;-68
2023/11/16 05:42:51;;;;;;;6.13;2.03;;;;;;;7.80;100.00;100556.47;4768422;30;20574;-68
2023/11/16 05:45:26;;;;;;;2.22;1.65;;;;;;;7.79;100.00;100557.50;4769153;30;20196;-69
2023/11/16 05:48:03;;;;;;;7.53;1.63;;;;;;;7.81;100.00;100547.38;4751177;30;20220;-67
2023/11/16 05:50:40;;;;;;;3.78;1.52;;;;;;;7.78;100.00;100555.84;4747829;30;20262;-68
2023/11/16 05:53:12;;;;;;;2.95;1.10;;;;;;;7.88;100.00;100550.13;4752566;30;20262;-68
2023/11/16 05:55:46;;;;;;;3.63;1.42;;;;;;;7.91;100.00;100545.19;4742690;30;20208;-67
2023/11/16 05:58:20;;;;;;;3.03;2.08;;;;;;;8.00;100.00;100544.00;4746543;30;20205;-68
2023/11/16 06:00:55;;;;;;;2.35;1.40;;;;;;;7.92;100.00;100546.03;4740157;30;20221;-66
2023/11/16 06:03:32;;;;;;;10.70;2.08;;;;;;;7.79;100.00;100538.66;4736125;30;20229;-66
2023/11/16 06:06:09;;;;;;;3.10;1.60;;;;;;;7.82;100.00;100543.66;4735625;30;20211;-67
2023/11/16 06:08:40;;;;;;;10.43;2.25;;;;;;;7.93;100.00;100543.13;4749484;30;20220;-66
2023/11/16 06:11:18;;;;;;;2.90;2.40;;;;;;;7.93;100.00;100539.59;4735739;30;20212;-67
2023/11/16 06:13:50;;;;;;;1.52;1.30;;;;;;;7.94;100.00;100534.00;4752456;30;20232;-65
2023/11/16 06:16:24;;;;;;;4.70;1.58;;;;;;;7.84;100.00;100533.53;4735577;30;20231;-67
2023/11/16 06:18:58;;;;;;;2.03;1.15;;;;;;;7.86;100.00;100543.06;4734536;30;20725;-68
2023/11/16 06:21:31;;;;;;;2.00;1.90;;;;;;;7.97;100.00;100533.63;4735069;30;20295;-66
2023/11/16 06:24:03;;;;;;;2.58;1.50;;;;;;;7.86;100.00;100534.16;4733314;30;20360;-66
2023/11/16 06:26:37;;;;;;;2.30;1.27;;;;;;;7.80;100.00;100521.44;4733636;30;20231;-65
2023/11/16 06:29:08;;;;;;;1.63;1.42;;;;;;;7.81;100.00;100515.88;4731134;30;20708;-68
2023/11/16 06:31:42;;;;;;;1.50;1.40;;;;;;;7.86;100.00;100516.13;4748329;30;20243;-67
2023/11/16 06:34:16;;;;;;;2.45;1.60;;;;;;;7.86;100.00;100512.59;4731438;30;20232;-67
2023/11/16 06:36:48;;;;;;;3.65;1.52;;;;;;;7.93;100.00;100518.06;4736316;30;20205;-67
2023/11/16 06:39:22;;;;;;;3.22;1.33;;;;;;;8.02;100.00;100525.81;4730886;30;20209;-66
2023/11/16 06:41:55;;;;;;;1.45;1.35;;;;;;;8.03;100.00;100521.25;4750492;30;20223;-67
2023/11/16 06:44:29;;;;;;;3.70;2.45;;;;;;;7.95;100.00;100522.22;4749672;30;20285;-70
2023/11/16 06:47:02;;;;;;;2.50;1.40;;;;;;;8.00;100.00;100525.16;4750226;30;20273;-66
2023/11/16 06:49:34;;;;;;;1.60;1.30;;;;;;;7.93;100.00;100516.19;4735331;30;20220;-68
2023/11/16 06:52:14;;;;;;;3.13;2.30;;;;;;;7.96;100.00;100512.25;4736930;30;20206;-68
2023/11/16 06:54:47;;;;;;;2.08;1.88;;;;;;;8.22;100.00;100518.72;4748575;30;20720;-67
2023/11/16 06:57:22;;;;;;;2.33;1.45;;;;;;;8.17;100.00;100507.69;4746038;30;20223;-67
2023/11/16 06:59:57;;;;;;;3.13;1.65;;;;;;;8.14;100.00;100513.44;4735175;30;20214;-68
2023/11/16 07:02:34;;;;;;;4.75;1.88;;;;;;;8.18;100.00;100512.03;4734051;30;20780;-67
2023/11/16 07:05:08;;;;;;;5.57;1.70;;;;;;;8.15;100.00;100504.34;4733916;30;20735;-66
2023/11/16 07:07:45;;;;;;;3.92;2.33;;;;;;;8.28;100.00;100509.81;4749116;30;20553;-67
2023/11/16 07:10:19;;;;;;;2.42;1.50;;;;;;;8.32;100.00;100515.72;4733974;30;20219;-67
2023/11/16 07:12:53;;;;;;;4.13;1.20;;;;;;;8.23;100.00;100508.75;4731087;30;20636;-66
2023/11/16 07:15:25;;;;;;;2.78;1.40;;;;;;;8.23;100.00;100506.88;4744403;30;20262;-66
2023/11/16 07:17:58;;;;;;;1.35;1.10;;;;;;;8.19;100.00;100510.16;4736707;30;20200;-67
2023/11/16 07:20:31;;;;;;;2.47;1.38;;;;;;;8.21;100.00;100511.66;4732935;30;20205;-68
2023/11/16 07:23:03;;;;;;;2.35;1.67;;;;;;;8.37;100.00;100517.81;4744530;30;20701;-65
2023/11/16 07:25:37;;;;;;;9.27;1.63;;;;;;;8.35;100.00;100512.59;4734787;30;20208;-66
2023/11/16 07:28:12;;;;;;;2.95;1.35;;;;;;;8.38;100.00;100508.66;4732946;30;20211;-65
2023/11/16 07:30:45;;;;;;;2.50;1.05;;;;;;;8.61;100.00;100518.19;4732677;30;20633;-66
2023/11/16 07:33:18;;;;;;;1.58;1.10;;;;;;;8.56;100.00;100517.94;4734594;30;20248;-67
2023/11/16 07:35:51;;;;;;;1.35;1.15;;;;;;;8.53;100.00;100522.88;4745231;30;20212;-67
2023/11/16 07:38:24;;;;;;;1.83;1.15;;;;;;;8.58;100.00;100515.03;4746719;30;20579;-66
2023/11/16 07:40:57;;;;;;;2.38;1.42;;;;;;;8.52;100.00;100515.84;4747570;30;20714;-68
2023/11/16 07:43:31;;;;;;;1.67;1.58;;;;;;;8.56;100.00;100517.94;4731579;30;20652;-68
2023/11/16 07:46:05;;;;;;;1.20;1.10;;;;;;;8.51;100.00;100522.25;4728609;30;20269;-69
2023/11/16 07:48:45;;;;;;;8.77;1.35;;;;;;;8.54;100.00;100519.16;4731010;30;20226;-68
2023/11/16 07:51:19;;;;;;;2.03;1.67;;;;;;;8.58;100.00;100515.88;4731071;30;20204;-69
2023/11/16 07:53:57;;;;;;;1.50;0.90;;;;;;;8.66;100.00;100504.09;4747182;30;20247;-68
2023/11/16 07:56:31;;;;;;;1.98;1.30;;;;;;;8.86;100.00;100513.09;4734065;30;20207;-68
2023/11/16 07:59:03;;;;;;;1.80;1.50;;;;;;;8.75;100.00;100507.47;4745403;30;20358;-67
2023/11/16 08:01:49;;;;;;;2.72;1.58;;;;;;;8.71;100.00;100515.13;4732210;30;20205;-67
2023/11/16 08:04:25;;;;;;;1.48;1.05;;;;;;;8.90;100.00;100522.50;4743495;30;20231;-67
2023/11/16 08:06:59;;;;;;;6.72;1.65;;;;;;;8.77;100.00;100524.25;4734066;30;20602;-67
2023/11/16 08:09:35;;;;;;;3.67;1.35;;;;;;;8.76;100.00;100526.16;4735617;30;20219;-69
2023/11/16 08:12:10;;;;;;;3.65;0.90;;;;;;;8.55;100.00;100527.06;4751539;30;20208;-66
2023/11/16 08:14:45;;;;;;;1.85;1.15;;;;;;;8.54;100.00;100519.16;4751258;30;20653;-68
2023/11/16 08:17:16;;;;;;;1.80;1.23;;;;;;;8.49;100.00;100510.81;4737960;30;20208;-67
2023/11/16 08:19:50;;;;;;;3.60;3.25;;;;;;;8.62;100.00;100516.28;4735588;30;20197;-66
2023/11/16 08:22:24;;;;;;;2.45;1.50;;;;;;;8.72;100.00;100523.00;4750247;30;20244;-65
2023/11/16 08:24:56;;;;;;;4.30;1.73;;;;;;;8.80;100.00;100521.19;4749088;30;20738;-67
2023/11/16 08:27:28;;;;;;;5.05;1.67;;;;;;;8.87;100.00;100528.28;4750809;30;20205;-68
2023/11/16 08:30:00;;;;;;;5.03;2.30;;;;;;;8.97;100.00;100526.03;4742982;30;20269;-68
2023/11/16 08:32:33;;;;;;;5.70;2.40;;;;;;;8.88;100.00;100531.81;4750576;30;20231;-67
2023/11/16 08:35:10;;;;;;;3.85;1.50;;;;;;;8.82;100.00;100533.44;4736470;30;20224;-66
2023/11/16 08:37:41;;;;;;;5.00;1.50;;;;;;;8.94;100.00;100533.72;4750126;30;20761;-68
2023/11/16 08:40:18;;;;;;;2.20;1.80;;;;;;;8.93;100.00;100524.78;4735252;30;20196;-67
2023/11/16 08:42:51;;;;;;;1.48;1.17;;;;;;;9.02;100.00;100536.22;4752650;30;20286;-68
2023/11/16 08:45:24;;;;;;;1.63;1.15;;;;;;;9.04;100.00;100526.91;4732341;30;20204;-67
2023/11/16 08:48:02;;;;;;;3.55;1.65;;;;;;;9.19;100.00;100534.03;4749715;30;20200;-67
2023/11/16 08:50:42;;;;;;;1.20;0.88;;;;;;;9.15;100.00;100529.00;4748793;30;20314;-66
2023/11/16 08:53:16;;;;;;;19.35;1.85;;;;;;;9.16;100.00;100538.78;4731893;30;20230;-67
2023/11/16 08:55:48;;;;;;;1.75;1.40;;;;;;;9.33;100.00;100530.34;4747371;30;20210;-67
2023/11/16 08:58:21;;;;;;;2.20;1.30;;;;;;;9.38;100.00;100536.81;4732735;30;20205;-67
2023/11/16 09:00:53;;;;;;;2.78;1.77;;;;;;;9.39;100.00;100537.63;4734646;30;20601;-68
2023/11/16 09:03:28;;;;;;;1.45;1.00;;;;;;;9.08;100.00;100544.38;4735352;30;20603;-69
2023/11/16 09:06:03;;;;;;;3.17;1.60;;;;;;;8.83;100.00;100528.88;4750040;30;20249;-68
2023/11/16 09:08:37;;;;;;;1.85;1.10;;;;;;;8.84;100.00;100536.78;4749508;30;20286;-68
2023/11/16 09:11:11;;;;;;;3.10;1.65;;;;;;;8.71;100.00;100532.13;4745306;30;20643;-68
2023/11/16 09:13:42;;;;;;;2.72;1.70;;;;;;;8.89;100.00;100539.72;4749749;30;20255;-64
2023/11/16 09:16:14;;;;;;;2.85;1.60;;;;;;;8.86;100.00;100545.47;4734962;30;20411;-67
2023/11/16 09:18:58;;;;;;;1.55;1.45;;;;;;;8.99;100.00;100555.53;4736174;30;20207;-67
2023/11/16 09:21:34;;;;;;;2.45;1.33;;;;;;;9.07;100.00;100548.09;4729832;30;20205;-67
2023/11/16 09:24:07;;;;;;;2.30;1.35;;;;;;;9.06;100.00;100545.59;4734606;30;20228;-67
2023/11/16 09:26:40;;;;;;;1.27;0.88;;;;;;;9.11;100.00;100543.94;4734586;30;20236;-68
2023/11/16 09:29:13;;;;;;;1.67;1.15;;;;;;;9.35;100.00;100534.50;4749360;30;20200;-68
2023/11/16 09:31:45;;;;;;;1.45;1.13;;;;;;;9.32;100.00;100534.06;4734591;30;20208;-68
2023/11/16 09:34:19;;;;;;;7.07;0.80;;;;;;;9.31;100.00;100527.84;4745744;30;20228;-66
2023/11/16 09:36:59;;;;;;;1.95;1.48;;;;;;;9.34;99.68;100527.44;4747400;30;20204;-65
2023/11/16 09:39:33;;;;;;;1.90;1.25;;;;;;;9.14;100.00;100530.06;4747993;30;20204;-66
2023/11/16 09:42:13;;;;;;;2.83;1.10;;;;;;;9.01;100.00;100546.19;4735615;30;20311;-67
2023/11/16 09:44:51;;;;;;;1.40;0.95;;;;;;;9.06;100.00;100534.78;4735159;30;20223;-68
2023/11/16 09:47:29;;;;;;;2.10;1.00;;;;;;;9.24;100.00;100539.66;4734631;30;20206;-67
2023/11/16 09:50:03;;;;;;;2.40;1.50;;;;;;;9.38;100.00;100533.25;4747338;30;20220;-71
2023/11/16 09:52:41;;;;;;;2.10;1.67;;;;;;;9.34;98.83;100535.56;4749301;30;20261;-67
2023/11/16 09:55:17;;;;;;;1.00;0.75;;;;;;;9.23;92.31;100540.69;4744736;30;20291;-66
2023/11/16 09:57:50;;;;;;;1.52;0.82;;;;;;;8.99;88.72;100542.88;4735660;30;20216;-68
2023/11/16 10:00:26;;;;;;;1.00;0.73;;;;;;;8.90;88.02;100544.09;4734437;30;20200;-67
2023/11/16 10:02:58;;;;;;;1.20;0.50;;;;;;;8.86;87.92;100540.09;4748562;30;20200;-67
2023/11/16 10:05:36;;;;;;;1.80;0.88;;;;;;;8.83;87.29;100527.00;4736875;30;20216;-69
2023/11/16 10:08:14;;;;;;;4.15;1.08;;;;;;;8.93;88.15;100519.38;4735352;30;20680;-68
2023/11/16 10:10:55;;;;;;;1.13;0.70;;;;;;;9.23;88.21;100511.00;4731139;30;20269;-69
2023/11/16 10:13:31;;;;;;;0.90;0.60;;;;;;;9.22;85.29;100498.53;4746853;30;20674;-66
2023/11/16 10:16:09;;;;;;;2.80;0.65;;;;;;;9.53;85.40;100506.94;4748461;30;20239;-65
2023/11/16 10:18:51;;;;;;;0.80;0.50;;;;;;;9.80;84.53;100499.69;4735397;30;20611;-63
2023/11/16 10:21:31;;;;;;;1.10;0.85;;;;;;;10.00;82.38;100495.94;4749095;30;20204;-65
2023/11/16 10:24:20;;;;;;;0.90;0.50;;;;;;;10.14;81.80;100495.94;4733732;30;20673;-66
2023/11/16 10:26:57;;;;;;;0.95;0.77;;;;;;;10.20;78.87;100500.56;4748545;30;20458;-67
2023/11/16 10:29:39;;;;;;;1.10;0.70;;;;;;;10.14;77.57;100496.78;4733772;30;20211;-66
2023/11/16 10:32:20;;;;;;;0.80;0.50;;;;;;;10.03;77.22;100487.41;4748224;30;20831;-65
2023/11/16 10:34:57;;;;;;;1.37;0.70;;;;;;;9.99;76.77;100478.06;4748036;30;20244;-66
2023/11/16 10:37:40;;;;;;;1.30;0.90;;;;;;;9.85;77.98;100475.56;4733618;30;20461;-67
2023/11/16 10:40:17;;;;;;;1.37;0.67;;;;;;;10.10;78.05;100490.13;4733134;30;20629;-66
2023/11/16 10:42:56;;;;;;;1.02;0.70;;;;;;;9.95;75.18;100478.69;4747506;30;21032;-65
2023/11/16 10:45:32;;;;;;;1.17;0.60;;;;;;;10.11;72.77;100472.03;4732983;30;20219;-67
2023/11/16 10:48:13;;;;;;;2.43;0.70;;;;;;;10.14;71.82;100460.78;4727634;30;20612;-69
2023/11/16 10:50:49;;;;;;;2.80;0.50;;;;;;;9.99;72.66;100474.53;4734301;30;20478;-65
2023/11/16 10:53:26;;;;;;;0.80;0.50;;;;;;;9.74;71.54;100465.38;4733178;30;20600;-66
2023/11/16 10:56:01;;;;;;;1.63;0.50;;;;;;;9.95;71.90;100476.81;4746637;30;20512;-66
2023/11/16 10:58:33;;;;;;;1.30;0.63;;;;;;;10.04;71.34;100475.56;4733048;30;20473;-65
2023/11/16 11:01:07;;;;;;;0.80;0.40;;;;;;;10.17;71.99;100485.56;4731913;30;20200;-66
2023/11/16 11:03:44;;;;;;;0.90;0.50;;;;;;;10.23;71.48;100489.31;4746850;30;20528;-67
2023/11/16 11:06:26;;;;;;;0.83;0.50;;;;;;;10.30;69.62;100484.72;4730957;30;20450;-67
2023/11/16 11:09:07;;;;;;;1.27;0.50;;;;;;;10.08;70.86;100497.59;4733236;30;20872;-67
2023/11/16 11:11:48;;;;;;;0.80;0.40;;;;;;;9.97;72.45;100493.66;4732711;30;20590;-68
2023/11/16 11:14:26;;;;;;;0.90;0.53;;;;;;;9.92;72.96;100495.34;4728552;30;20705;-65
2023/11/16 11:17:08;;;;;;;1.03;0.50;;;;;;;9.70;72.42;100494.69;4746904;30;20474;-68
2023/11/16 11:19:43;;;;;;;1.07;0.77;;;;;;;9.57;74.62;100500.91;4746956;30;20462;-66
2023/11/16 11:22:20;;;;;;;0.80;0.50;;;;;;;9.26;79.21;100502.47;4747865;30;20969;-66
2023/11/16 11:24:56;;;;;;;1.60;0.47;;;;;;;8.99;81.48;100499.69;4733439;30;20461;-69
2023/11/16 11:27:40;;;;;;;1.10;0.63;;;;;;;8.91;83.01;100505.25;4744725;30;20765;-67
2023/11/16 11:30:19;;;;;;;0.90;0.60;;;;;;;9.02;82.35;100515.47;4745409;30;20290;-68
2023/11/16 11:32:59;;;;;;;2.08;0.60;;;;;;;8.99;82.71;100502.38;4732584;30;20549;-66
2023/11/16 11:35:39;;;;;;;1.25;0.60;;;;;;;8.95;82.47;100501.13;4733009;30;20239;-68
2023/11/16 11:38:27;;;;;;;0.80;0.52;;;;;;;9.13;81.50;100504.09;4733766;30;20196;-68
2023/11/16 11:41:06;;;;;;;1.25;0.68;;;;;;;9.27;79.32;100498.75;4747550;30;20203;-66
2023/11/16 11:43:44;;;;;;;4.53;0.90;;;;;;;9.08;77.51;100506.56;4745623;30;20730;-66
2023/11/16 11:46:19;;;;;;;0.90;0.50;;;;;;;9.10;78.33;100499.09;4733377;30;20231;-67
2023/11/16 11:48:58;;;;;;;1.00;0.50;;;;;;;9.11;77.58;100489.97;4746158;30;20199;-67
2023/11/16 11:51:38;;;;;;;2.08;0.50;;;;;;;9.14;75.54;100484.19;4742423;30;20719;-65
2023/11/16 11:54:40;;;;;;;0.90;0.50;;;;;;;9.11;76.05;100483.72;4731884;30;20608;-66
2023/11/16 11:57:16;;;;;;;0.90;0.60;;;;;;;9.24;75.88;100482.97;4747288;30;20302;-66
2023/11/16 12:00:11;;;;;;;0.80;0.50;;;;;;;9.39;74.95;100499.84;4732414;30;20208;-65
2023/11/16 12:02:54;;;;;;;0.80;0.50;;;;;;;9.38;74.71;100490.06;4733574;30;20260;-67
2023/11/16 12:05:29;;;;;;;0.80;0.50;;;;;;;9.51;73.72;100492.78;4748938;30;20258;-66